Time;durP1;ratioP1;P1;durP2;ratioP2;P2;SDS_P1;SDS_P2;PMS_P1;PMS_P2;Temp;Humidity;BMP_temperature;BMP_pressure;BME280_temperature;BME280_humidity;BME280_pressure;Samples;Min_cycle;Max_cycle;Signal;HPM_P1;HPM_P2
2023/03/05 00:01:55;;;;;;;25.50;14.03;;;;;;;;;;4985668;28;20786;-77
2023/03/05 00:04:22;;;;;;;31.20;15.50;;;;;;;;;;4965828;28;20279;-76
2023/03/05 00:06:49;;;;;;;28.87;14.80;;;;;;;;;;4965199;28;20212;-77
2023/03/05 00:09:17;;;;;;;33.23;15.53;;;;;;;;;;4961174;28;20208;-76
2023/03/05 00:11:44;;;;;;;30.67;15.03;;;;;;;;;;4988147;28;20228;-76
2023/03/05 00:14:11;;;;;;;27.60;13.67;;;;;;;;;;4985171;28;20211;-76
2023/03/05 00:16:39;;;;;;;29.00;14.47;;;;;;;;;;4981138;28;20307;-76
2023/03/05 00:19:07;;;;;;;35.37;16.30;;;;;;;;;;4988266;28;20335;-77
2023/03/05 00:21:36;;;;;;;27.00;15.40;;;;;;;;;;4969736;28;20231;-76
2023/03/05 00:24:05;;;;;;;28.87;14.23;;;;;;;;;;4960128;28;20232;-76
2023/03/05 00:26:34;;;;;;;30.97;14.17;;;;;;;;;;4965428;28;21180;-74
2023/03/05 00:29:03;;;;;;;27.77;14.17;;;;;;;;;;4965486;28;20213;-78
2023/03/05 00:31:31;;;;;;;31.13;15.00;;;;;;;;;;4958638;28;20694;-76
2023/03/05 00:33:59;;;;;;;29.30;14.27;;;;;;;;;;4965870;28;20200;-77
2023/03/05 00:36:27;;;;;;;28.67;14.20;;;;;;;;;;4959737;28;20243;-77
2023/03/05 00:38:55;;;;;;;26.60;14.60;;;;;;;;;;4971851;28;20205;-76
2023/03/05 00:41:22;;;;;;;26.83;13.67;;;;;;;;;;4965224;28;20239;-76
2023/03/05 00:43:49;;;;;;;26.13;14.30;;;;;;;;;;4955048;28;20277;-75
2023/03/05 00:46:17;;;;;;;28.07;14.30;;;;;;;;;;4953629;28;20766;-76
2023/03/05 00:48:44;;;;;;;24.30;13.23;;;;;;;;;;4963343;28;20325;-75
2023/03/05 00:51:11;;;;;;;28.27;12.97;;;;;;;;;;4956484;28;22383;-76
2023/03/05 00:53:39;;;;;;;24.27;13.23;;;;;;;;;;4963170;28;20208;-77
2023/03/05 00:56:07;;;;;;;25.90;12.80;;;;;;;;;;4955603;28;20291;-77
2023/03/05 00:58:34;;;;;;;26.83;13.30;;;;;;;;;;4954454;28;20303;-75
2023/03/05 01:01:01;;;;;;;26.43;13.43;;;;;;;;;;4957252;28;20323;-76
2023/03/05 01:03:29;;;;;;;29.80;14.10;;;;;;;;;;4958170;28;20213;-76
2023/03/05 01:05:58;;;;;;;27.90;14.13;;;;;;;;;;4964200;28;20209;-77
2023/03/05 01:08:28;;;;;;;26.17;12.97;;;;;;;;;;4947935;28;20856;-76
2023/03/05 01:10:55;;;;;;;28.03;13.63;;;;;;;;;;4958332;28;20257;-77
2023/03/05 01:13:23;;;;;;;25.13;13.00;;;;;;;;;;4957369;28;22115;-77
2023/03/05 01:15:50;;;;;;;22.00;12.20;;;;;;;;;;4969352;28;20291;-77
2023/03/05 01:18:18;;;;;;;24.63;12.37;;;;;;;;;;4959785;28;20213;-78
2023/03/05 01:20:45;;;;;;;24.97;13.07;;;;;;;;;;4958926;28;20243;-76
2023/03/05 01:23:15;;;;;;;25.00;13.07;;;;;;;;;;4978846;28;20208;-74
2023/03/05 01:25:42;;;;;;;23.50;12.27;;;;;;;;;;4978337;28;20207;-77
2023/03/05 01:28:10;;;;;;;25.87;13.07;;;;;;;;;;4966512;28;20213;-75
2023/03/05 01:30:37;;;;;;;27.63;13.53;;;;;;;;;;4968868;28;20237;-74
2023/03/05 01:33:04;;;;;;;24.03;12.47;;;;;;;;;;4964231;28;20211;-74
2023/03/05 01:35:31;;;;;;;26.40;12.87;;;;;;;;;;4955411;28;20205;-76
2023/03/05 01:37:59;;;;;;;22.90;12.50;;;;;;;;;;4944998;28;20212;-77
2023/03/05 01:40:28;;;;;;;26.17;13.33;;;;;;;;;;4947268;28;20213;-77
2023/03/05 01:43:00;;;;;;;24.57;13.23;;;;;;;;;;4958714;28;20288;-76
2023/03/05 01:45:31;;;;;;;22.63;12.97;;;;;;;;;;4966680;28;20240;-78
2023/03/05 01:47:58;;;;;;;23.90;13.03;;;;;;;;;;4975667;28;20216;-76
2023/03/05 01:50:27;;;;;;;25.23;12.77;;;;;;;;;;4977020;28;20350;-76
2023/03/05 01:52:58;;;;;;;24.73;12.50;;;;;;;;;;4977344;28;20216;-77
2023/03/05 01:55:27;;;;;;;24.10;12.57;;;;;;;;;;4972483;28;20264;-75
2023/03/05 01:57:57;;;;;;;21.63;12.67;;;;;;;;;;4952099;28;20205;-76
2023/03/05 02:00:26;;;;;;;21.73;12.27;;;;;;;;;;4963535;28;20976;-77
2023/03/05 02:02:53;;;;;;;24.93;13.93;;;;;;;;;;4958685;28;20810;-76
2023/03/05 02:05:29;;;;;;;27.63;13.63;;;;;;;;;;4956957;28;20572;-78
2023/03/05 02:08:01;;;;;;;25.23;12.43;;;;;;;;;;4947617;28;20382;-77
2023/03/05 02:10:30;;;;;;;25.50;13.17;;;;;;;;;;4957478;28;20325;-76
2023/03/05 02:13:01;;;;;;;25.43;14.27;;;;;;;;;;4949071;28;20216;-77
2023/03/05 02:15:29;;;;;;;26.63;13.80;;;;;;;;;;4954492;28;20215;-75
2023/03/05 02:17:56;;;;;;;28.43;14.07;;;;;;;;;;4950877;28;20298;-77
2023/03/05 02:20:26;;;;;;;28.40;14.60;;;;;;;;;;4946698;28;21556;-75
2023/03/05 02:22:53;;;;;;;28.07;13.50;;;;;;;;;;4952664;28;20208;-78
2023/03/05 02:25:22;;;;;;;29.80;13.73;;;;;;;;;;4953460;28;20235;-76
2023/03/05 02:28:01;;;;;;;25.33;13.53;;;;;;;;;;4963899;28;20220;-77
2023/03/05 02:30:30;;;;;;;23.80;13.47;;;;;;;;;;4954164;28;20216;-76
2023/03/05 02:32:57;;;;;;;29.77;13.40;;;;;;;;;;4955293;28;20280;-76
2023/03/05 02:35:24;;;;;;;26.67;12.97;;;;;;;;;;4956418;28;20209;-77
2023/03/05 02:37:52;;;;;;;28.83;12.30;;;;;;;;;;4961461;28;20232;-75
2023/03/05 02:40:19;;;;;;;23.67;12.57;;;;;;;;;;4951099;28;20196;-77
2023/03/05 02:42:47;;;;;;;23.40;12.53;;;;;;;;;;4949742;28;20217;-77
2023/03/05 02:45:15;;;;;;;24.10;13.87;;;;;;;;;;4960393;28;20713;-77
2023/03/05 02:47:43;;;;;;;24.87;13.00;;;;;;;;;;4953590;28;20760;-76
2023/03/05 02:50:11;;;;;;;23.43;12.27;;;;;;;;;;4962486;28;20212;-76
2023/03/05 02:52:39;;;;;;;21.87;12.47;;;;;;;;;;4956220;28;20232;-76
2023/03/05 02:55:06;;;;;;;26.20;12.47;;;;;;;;;;4963063;28;20224;-76
2023/03/05 02:57:33;;;;;;;25.10;12.77;;;;;;;;;;4953838;28;20216;-77
2023/03/05 03:00:01;;;;;;;23.60;12.77;;;;;;;;;;4959622;28;20204;-77
2023/03/05 03:02:28;;;;;;;25.90;12.07;;;;;;;;;;4956280;28;21304;-75
2023/03/05 03:04:55;;;;;;;25.20;12.43;;;;;;;;;;4957349;28;20208;-77
2023/03/05 03:07:22;;;;;;;28.30;13.10;;;;;;;;;;4965635;28;20209;-75
2023/03/05 03:09:50;;;;;;;23.30;12.10;;;;;;;;;;4955233;28;20220;-75
2023/03/05 03:12:17;;;;;;;25.10;12.77;;;;;;;;;;4963349;28;20230;-77
2023/03/05 03:14:44;;;;;;;25.90;12.73;;;;;;;;;;4954873;28;23430;-75
2023/03/05 03:17:13;;;;;;;25.13;12.23;;;;;;;;;;4961752;28;20814;-76
2023/03/05 03:19:41;;;;;;;25.97;12.67;;;;;;;;;;4955519;28;20259;-77
2023/03/05 03:22:10;;;;;;;25.90;12.63;;;;;;;;;;4972566;28;20262;-77
2023/03/05 03:24:37;;;;;;;22.03;12.27;;;;;;;;;;4972778;28;20213;-77
2023/03/05 03:27:05;;;;;;;22.97;12.97;;;;;;;;;;4979143;28;20205;-77
2023/03/05 03:29:32;;;;;;;19.87;11.23;;;;;;;;;;4982667;28;21327;-77
2023/03/05 03:31:59;;;;;;;22.57;11.53;;;;;;;;;;4979833;28;20236;-77
2023/03/05 03:34:27;;;;;;;25.80;12.40;;;;;;;;;;4975959;28;20201;-77
2023/03/05 03:36:54;;;;;;;24.00;11.87;;;;;;;;;;4954299;28;20295;-74
2023/03/05 03:39:24;;;;;;;20.47;11.97;;;;;;;;;;4957965;28;20340;-74
2023/03/05 03:41:52;;;;;;;18.77;10.70;;;;;;;;;;4955873;28;20274;-75
2023/03/05 03:44:20;;;;;;;22.17;11.57;;;;;;;;;;4965090;28;20725;-74
2023/03/05 03:46:48;;;;;;;23.47;11.87;;;;;;;;;;4959319;28;20298;-78
2023/03/05 03:49:19;;;;;;;22.10;12.13;;;;;;;;;;4959536;28;20657;-77
2023/03/05 03:51:47;;;;;;;21.60;12.50;;;;;;;;;;4951473;28;20233;-76
2023/03/05 03:54:14;;;;;;;20.60;11.37;;;;;;;;;;4957975;28;20224;-76
2023/03/05 03:56:42;;;;;;;23.17;11.93;;;;;;;;;;4961339;28;20209;-78
2023/03/05 03:59:10;;;;;;;25.20;12.30;;;;;;;;;;4957431;28;20216;-77
2023/03/05 04:01:37;;;;;;;22.13;11.77;;;;;;;;;;4950910;28;20243;-76
2023/03/05 04:04:05;;;;;;;20.83;11.47;;;;;;;;;;4959824;28;20215;-78
2023/03/05 04:06:33;;;;;;;20.80;10.93;;;;;;;;;;4956520;28;20212;-76
2023/03/05 04:09:00;;;;;;;21.20;11.33;;;;;;;;;;4959770;28;20213;-74
2023/03/05 04:11:28;;;;;;;22.30;11.63;;;;;;;;;;4957772;28;20798;-77
2023/03/05 04:13:55;;;;;;;25.30;11.73;;;;;;;;;;4958512;28;20288;-77
2023/03/05 04:16:22;;;;;;;19.63;11.33;;;;;;;;;;4959184;28;20219;-77
2023/03/05 04:18:53;;;;;;;20.27;10.90;;;;;;;;;;4952186;28;20216;-76
2023/03/05 04:21:22;;;;;;;17.70;10.90;;;;;;;;;;4959146;28;20735;-77
2023/03/05 04:23:49;;;;;;;17.17;11.13;;;;;;;;;;4955707;28;20339;-77
2023/03/05 04:26:17;;;;;;;18.77;10.73;;;;;;;;;;4959364;28;21600;-76
2023/03/05 04:28:44;;;;;;;19.90;10.07;;;;;;;;;;4957614;28;20207;-75
2023/03/05 04:31:12;;;;;;;16.97;9.33;;;;;;;;;;4957302;28;20235;-77
2023/03/05 04:33:39;;;;;;;16.03;9.97;;;;;;;;;;4953958;28;20651;-77
2023/03/05 04:36:07;;;;;;;18.03;11.00;;;;;;;;;;4951947;28;20745;-75
2023/03/05 04:38:34;;;;;;;18.93;10.77;;;;;;;;;;4956237;28;20208;-76
2023/03/05 04:41:01;;;;;;;18.23;9.93;;;;;;;;;;4954950;28;20216;-77
2023/03/05 04:43:29;;;;;;;18.30;10.03;;;;;;;;;;4953808;28;23110;-78
2023/03/05 04:45:56;;;;;;;20.03;10.67;;;;;;;;;;4955967;28;20205;-77
2023/03/05 04:48:23;;;;;;;18.03;10.10;;;;;;;;;;4954419;28;20215;-79
2023/03/05 04:50:50;;;;;;;18.80;10.93;;;;;;;;;;4959764;28;20701;-76
2023/03/05 04:53:18;;;;;;;19.50;9.47;;;;;;;;;;4953159;28;20867;-76
2023/03/05 04:55:45;;;;;;;17.73;9.83;;;;;;;;;;4952614;28;20745;-75
2023/03/05 04:58:12;;;;;;;18.37;9.77;;;;;;;;;;4953777;28;20214;-76
2023/03/05 05:00:39;;;;;;;18.37;10.33;;;;;;;;;;4940695;28;20228;-76
2023/03/05 05:03:07;;;;;;;16.20;9.57;;;;;;;;;;4956086;28;20209;-77
2023/03/05 05:05:34;;;;;;;18.87;10.43;;;;;;;;;;4957527;28;20205;-76
2023/03/05 05:08:01;;;;;;;17.20;10.60;;;;;;;;;;4963441;28;20208;-76
2023/03/05 05:10:30;;;;;;;16.27;9.80;;;;;;;;;;4956285;28;20219;-78
2023/03/05 05:12:57;;;;;;;16.57;10.07;;;;;;;;;;4960816;28;20332;-78
2023/03/05 05:15:24;;;;;;;19.67;10.10;;;;;;;;;;4947197;28;20973;-78
2023/03/05 05:17:52;;;;;;;17.97;9.80;;;;;;;;;;4958851;28;20196;-77
2023/03/05 05:20:19;;;;;;;18.30;10.43;;;;;;;;;;4964834;28;20213;-78
2023/03/05 05:22:48;;;;;;;17.33;10.27;;;;;;;;;;4972402;28;20212;-78
2023/03/05 05:25:15;;;;;;;18.23;10.80;;;;;;;;;;4969333;28;20285;-79
2023/03/05 05:27:42;;;;;;;18.20;10.97;;;;;;;;;;4967948;28;20213;-77
2023/03/05 05:30:10;;;;;;;17.67;10.27;;;;;;;;;;4970094;28;20224;-78
2023/03/05 05:32:37;;;;;;;16.27;9.53;;;;;;;;;;4971878;28;20721;-77
2023/03/05 05:35:05;;;;;;;18.30;11.03;;;;;;;;;;4969207;28;20287;-77
2023/03/05 05:37:32;;;;;;;17.20;10.50;;;;;;;;;;4969533;28;20665;-76
2023/03/05 05:39:59;;;;;;;18.77;10.67;;;;;;;;;;4949608;28;20231;-76
2023/03/05 05:42:28;;;;;;;18.10;10.57;;;;;;;;;;4963103;28;20348;-77
2023/03/05 05:44:55;;;;;;;20.83;11.63;;;;;;;;;;4975197;28;20204;-76
2023/03/05 05:47:22;;;;;;;20.03;10.87;;;;;;;;;;4979828;28;20374;-77
2023/03/05 05:49:49;;;;;;;17.90;10.27;;;;;;;;;;4973134;28;20665;-79
2023/03/05 05:52:17;;;;;;;20.27;11.27;;;;;;;;;;4979119;28;20231;-77
2023/03/05 05:54:44;;;;;;;24.60;12.40;;;;;;;;;;4980434;28;20747;-78
2023/03/05 05:57:11;;;;;;;18.97;11.60;;;;;;;;;;4968185;28;20209;-76
2023/03/05 05:59:39;;;;;;;21.43;11.00;;;;;;;;;;4958955;28;20205;-76
2023/03/05 06:02:06;;;;;;;22.47;11.67;;;;;;;;;;4963628;28;20244;-77
2023/03/05 06:04:34;;;;;;;23.10;12.13;;;;;;;;;;4960693;28;20243;-75
2023/03/05 06:07:02;;;;;;;20.60;11.50;;;;;;;;;;4957032;28;20370;-74
2023/03/05 06:09:29;;;;;;;19.87;11.60;;;;;;;;;;4956579;28;20216;-76
2023/03/05 06:11:56;;;;;;;20.80;10.87;;;;;;;;;;4961697;28;20219;-77
2023/03/05 06:14:23;;;;;;;19.37;11.17;;;;;;;;;;4954548;28;20295;-77
2023/03/05 06:16:51;;;;;;;22.60;11.90;;;;;;;;;;4967320;28;20697;-76
2023/03/05 06:19:18;;;;;;;22.80;11.77;;;;;;;;;;4953466;28;20220;-78
2023/03/05 06:21:45;;;;;;;20.67;11.10;;;;;;;;;;4950780;28;20423;-79
2023/03/05 06:24:12;;;;;;;21.50;11.67;;;;;;;;;;4949905;28;20213;-76
2023/03/05 06:26:43;;;;;;;21.73;11.90;;;;;;;;;;4951885;28;20226;-75
2023/03/05 06:29:10;;;;;;;21.40;12.37;;;;;;;;;;4950075;28;20209;-78
2023/03/05 06:31:38;;;;;;;21.90;13.87;;;;;;;;;;4951406;28;20241;-77
2023/03/05 06:34:05;;;;;;;21.87;12.47;;;;;;;;;;4955880;28;20201;-78
2023/03/05 06:36:32;;;;;;;22.67;12.00;;;;;;;;;;4951482;28;20208;-78
2023/03/05 06:38:59;;;;;;;21.43;11.23;;;;;;;;;;4955486;28;20224;-78
2023/03/05 06:41:28;;;;;;;21.17;12.90;;;;;;;;;;4947849;28;20239;-78
2023/03/05 06:43:55;;;;;;;21.00;12.37;;;;;;;;;;4961941;28;20675;-76
2023/03/05 06:46:24;;;;;;;22.10;11.80;;;;;;;;;;4951477;28;22182;-76
2023/03/05 06:48:52;;;;;;;24.60;12.50;;;;;;;;;;4954724;28;20228;-78
2023/03/05 06:51:21;;;;;;;21.47;12.57;;;;;;;;;;4957634;28;20232;-76
2023/03/05 06:53:48;;;;;;;27.40;14.73;;;;;;;;;;4956788;28;20224;-74
2023/03/05 06:56:16;;;;;;;22.57;12.60;;;;;;;;;;4945778;28;20859;-77
2023/03/05 06:58:44;;;;;;;20.90;11.87;;;;;;;;;;4954145;28;20204;-78
2023/03/05 07:01:12;;;;;;;21.13;13.67;;;;;;;;;;4961043;28;20936;-76
2023/03/05 07:03:40;;;;;;;22.93;14.70;;;;;;;;;;4953212;28;20299;-78
2023/03/05 07:06:08;;;;;;;24.17;12.77;;;;;;;;;;4957806;28;20690;-77
2023/03/05 07:08:36;;;;;;;22.73;13.33;;;;;;;;;;4953671;28;20260;-76
2023/03/05 07:11:04;;;;;;;19.03;11.87;;;;;;;;;;4952802;28;20239;-75
2023/03/05 07:13:31;;;;;;;25.53;13.20;;;;;;;;;;4947875;28;20327;-77
2023/03/05 07:15:58;;;;;;;20.90;11.87;;;;;;;;;;4954853;28;20613;-78
2023/03/05 07:18:26;;;;;;;22.00;11.70;;;;;;;;;;4947472;28;20773;-77
2023/03/05 07:20:54;;;;;;;21.13;12.30;;;;;;;;;;4964513;28;20230;-77
2023/03/05 07:23:21;;;;;;;22.13;12.17;;;;;;;;;;4974559;28;20208;-75
2023/03/05 07:25:48;;;;;;;23.60;12.47;;;;;;;;;;4977393;28;20294;-77
2023/03/05 07:28:15;;;;;;;25.10;12.50;;;;;;;;;;4973479;28;20291;-79
2023/03/05 07:30:42;;;;;;;22.57;12.07;;;;;;;;;;4972446;28;20228;-77
2023/03/05 07:33:10;;;;;;;23.00;12.40;;;;;;;;;;4974433;28;20240;-76
2023/03/05 07:35:40;;;;;;;24.40;14.00;;;;;;;;;;4960182;28;20219;-76
2023/03/05 07:38:07;;;;;;;23.70;12.37;;;;;;;;;;4966858;28;20320;-78
2023/03/05 07:40:34;;;;;;;23.97;12.60;;;;;;;;;;4955653;28;20215;-78
2023/03/05 07:43:01;;;;;;;23.13;12.60;;;;;;;;;;4974289;28;20216;-78
2023/03/05 07:45:29;;;;;;;22.30;12.33;;;;;;;;;;4965512;28;20209;-78
2023/03/05 07:47:56;;;;;;;24.23;12.40;;;;;;;;;;4966587;28;20207;-77
2023/03/05 07:50:23;;;;;;;21.30;13.13;;;;;;;;;;4965307;28;20220;-76
2023/03/05 07:52:51;;;;;;;25.83;12.73;;;;;;;;;;4961840;28;20836;-77
2023/03/05 07:55:18;;;;;;;21.93;11.87;;;;;;;;;;4972044;28;20238;-76
2023/03/05 07:57:46;;;;;;;22.90;12.97;;;;;;;;;;4957668;28;20205;-76
2023/03/05 08:00:13;;;;;;;24.33;13.53;;;;;;;;;;4962671;28;20222;-78
2023/03/05 08:02:40;;;;;;;24.87;13.20;;;;;;;;;;4951869;28;20219;-77
2023/03/05 08:05:08;;;;;;;22.70;12.77;;;;;;;;;;4957572;28;20211;-76
2023/03/05 08:07:35;;;;;;;24.03;13.33;;;;;;;;;;4954682;28;20397;-76
2023/03/05 08:10:03;;;;;;;21.37;12.67;;;;;;;;;;4957539;28;20213;-78
2023/03/05 08:12:30;;;;;;;21.40;12.70;;;;;;;;;;4945738;28;20240;-76
2023/03/05 08:14:58;;;;;;;22.90;13.60;;;;;;;;;;4947465;28;20209;-75
2023/03/05 08:17:25;;;;;;;24.23;13.13;;;;;;;;;;4942674;28;21589;-76
2023/03/05 08:19:56;;;;;;;24.73;12.73;;;;;;;;;;4935599;28;20301;-76
2023/03/05 08:22:23;;;;;;;20.50;12.60;;;;;;;;;;4946716;28;20232;-77
2023/03/05 08:24:51;;;;;;;21.30;13.40;;;;;;;;;;4939733;28;20232;-78
2023/03/05 08:27:18;;;;;;;21.77;12.73;;;;;;;;;;4946999;28;20224;-77
2023/03/05 08:29:45;;;;;;;27.67;14.10;;;;;;;;;;4942558;28;20255;-75
2023/03/05 08:32:13;;;;;;;21.07;13.10;;;;;;;;;;4941873;28;20335;-76
2023/03/05 08:34:40;;;;;;;22.00;12.97;;;;;;;;;;4946341;28;20216;-76
2023/03/05 08:37:08;;;;;;;22.73;12.93;;;;;;;;;;4942366;28;20205;-77
2023/03/05 08:39:36;;;;;;;19.70;11.97;;;;;;;;;;4945360;28;20213;-75
2023/03/05 08:42:03;;;;;;;24.67;12.80;;;;;;;;;;4950785;28;20247;-75
2023/03/05 08:44:34;;;;;;;24.67;13.03;;;;;;;;;;4944319;28;20215;-76
2023/03/05 08:47:02;;;;;;;21.23;13.00;;;;;;;;;;4933963;28;20973;-78
2023/03/05 08:49:29;;;;;;;24.37;12.27;;;;;;;;;;4943916;28;20208;-76
2023/03/05 08:51:56;;;;;;;22.10;13.37;;;;;;;;;;4942172;28;20259;-76
2023/03/05 08:54:24;;;;;;;23.73;13.00;;;;;;;;;;4943442;28;20212;-76
2023/03/05 08:56:51;;;;;;;21.30;12.13;;;;;;;;;;4940505;28;20215;-77
2023/03/05 08:59:18;;;;;;;18.37;12.33;;;;;;;;;;4952146;28;20212;-78
2023/03/05 09:01:45;;;;;;;18.23;11.33;;;;;;;;;;4935770;28;20258;-77
2023/03/05 09:04:14;;;;;;;17.93;11.63;;;;;;;;;;4947989;28;20834;-76
2023/03/05 09:06:41;;;;;;;21.43;13.20;;;;;;;;;;4948778;28;20213;-77
2023/03/05 09:09:08;;;;;;;23.03;12.57;;;;;;;;;;4945187;28;20374;-79
2023/03/05 09:11:36;;;;;;;21.13;12.30;;;;;;;;;;4951719;28;20223;-76
2023/03/05 09:14:03;;;;;;;23.10;12.23;;;;;;;;;;4965456;28;20236;-79
2023/03/05 09:16:31;;;;;;;19.43;12.87;;;;;;;;;;4967101;28;21518;-77
2023/03/05 09:18:59;;;;;;;20.60;12.73;;;;;;;;;;4962827;28;20220;-77
2023/03/05 09:21:26;;;;;;;22.40;12.17;;;;;;;;;;4962827;28;20221;-79
2023/03/05 09:23:58;;;;;;;20.07;12.03;;;;;;;;;;4964179;28;20569;-77
2023/03/05 09:26:26;;;;;;;19.63;12.37;;;;;;;;;;4964586;28;20300;-77
2023/03/05 09:28:53;;;;;;;18.77;11.97;;;;;;;;;;4970934;28;20205;-76
2023/03/05 09:31:20;;;;;;;20.60;12.50;;;;;;;;;;4969796;28;20225;-75
2023/03/05 09:33:48;;;;;;;20.80;12.63;;;;;;;;;;4970039;28;20303;-77
2023/03/05 09:36:20;;;;;;;20.63;11.93;;;;;;;;;;4963558;28;20214;-76
2023/03/05 09:38:48;;;;;;;19.80;13.10;;;;;;;;;;4964121;28;20205;-77
2023/03/05 09:41:21;;;;;;;18.57;12.20;;;;;;;;;;4966566;28;20669;-78
2023/03/05 09:43:54;;;;;;;20.53;12.37;;;;;;;;;;4963198;28;20221;-78
2023/03/05 09:46:30;;;;;;;27.27;12.57;;;;;;;;;;4966050;28;20236;-78
2023/03/05 09:49:02;;;;;;;20.17;11.63;;;;;;;;;;4962928;28;20303;-77
2023/03/05 09:51:31;;;;;;;21.83;12.30;;;;;;;;;;4971015;28;20323;-78
2023/03/05 09:54:06;;;;;;;17.20;11.53;;;;;;;;;;4964005;28;20259;-78
2023/03/05 09:56:55;;;;;;;21.00;12.40;;;;;;;;;;4966472;28;20209;-77
2023/03/05 09:59:27;;;;;;;20.30;12.90;;;;;;;;;;4967441;28;20227;-76
2023/03/05 10:01:59;;;;;;;21.90;12.47;;;;;;;;;;4975052;28;20308;-77
2023/03/05 10:04:55;;;;;;;22.13;12.07;;;;;;;;;;4982324;28;20209;-78
2023/03/05 10:07:35;;;;;;;19.23;12.00;;;;;;;;;;4968864;28;20223;-77
2023/03/05 10:10:13;;;;;;;19.43;11.50;;;;;;;;;;4972444;28;20255;-78
2023/03/05 10:12:43;;;;;;;22.97;12.20;;;;;;;;;;4976593;28;20251;-77
2023/03/05 10:15:23;;;;;;;22.47;12.37;;;;;;;;;;4969341;28;20244;-77
2023/03/05 10:18:20;;;;;;;19.57;12.67;;;;;;;;;;4969678;28;20223;-76
2023/03/05 10:20:59;;;;;;;18.97;12.87;;;;;;;;;;4959866;28;20216;-78
2023/03/05 10:23:56;;;;;;;25.10;13.40;;;;;;;;;;4960161;28;20696;-78
2023/03/05 10:26:38;;;;;;;16.50;11.30;;;;;;;;;;4936124;28;20208;-76
2023/03/05 10:29:12;;;;;;;21.13;11.43;;;;;;;;;;4975884;28;20686;-77
2023/03/05 10:31:54;;;;;;;17.70;11.33;;;;;;;;;;4965712;28;20240;-77
2023/03/05 10:34:30;;;;;;;23.03;13.10;;;;;;;;;;4974839;28;20231;-77
2023/03/05 10:37:06;;;;;;;20.70;11.90;;;;;;;;;;4978421;28;20199;-76
2023/03/05 10:39:42;;;;;;;20.10;13.13;;;;;;;;;;4973204;28;20258;-76
2023/03/05 10:42:20;;;;;;;19.80;11.57;;;;;;;;;;4986209;28;20287;-77
2023/03/05 10:44:50;;;;;;;17.73;11.37;;;;;;;;;;4973431;28;20279;-76
2023/03/05 10:47:23;;;;;;;18.07;11.97;;;;;;;;;;4977147;28;20201;-75
2023/03/05 10:49:52;;;;;;;16.60;10.47;;;;;;;;;;4973956;28;20694;-75
2023/03/05 10:52:22;;;;;;;20.33;14.43;;;;;;;;;;4975007;28;20355;-77
2023/03/05 10:54:49;;;;;;;15.43;10.00;;;;;;;;;;4975256;28;20418;-78
2023/03/05 10:57:18;;;;;;;19.23;12.73;;;;;;;;;;4971562;28;20209;-76
2023/03/05 10:59:48;;;;;;;19.20;10.57;;;;;;;;;;4967807;28;20205;-77
2023/03/05 11:02:16;;;;;;;14.87;9.70;;;;;;;;;;4968235;28;20224;-78
2023/03/05 11:04:45;;;;;;;15.53;10.60;;;;;;;;;;4967783;28;20236;-77
2023/03/05 11:07:16;;;;;;;15.90;11.00;;;;;;;;;;4972451;28;20303;-77
2023/03/05 11:10:01;;;;;;;14.30;9.87;;;;;;;;;;4971928;28;20240;-77
2023/03/05 11:12:32;;;;;;;14.97;9.23;;;;;;;;;;4967439;28;20248;-77
2023/03/05 11:15:08;;;;;;;13.23;8.27;;;;;;;;;;4970139;28;20226;-77
2023/03/05 11:17:37;;;;;;;21.43;12.93;;;;;;;;;;4977294;28;21478;-79
2023/03/05 11:20:23;;;;;;;10.40;7.43;;;;;;;;;;4970851;28;20213;-79
2023/03/05 11:23:09;;;;;;;10.47;7.27;;;;;;;;;;4975461;28;20204;-78
2023/03/05 11:25:56;;;;;;;10.13;7.07;;;;;;;;;;4975045;28;20219;-78
2023/03/05 11:28:37;;;;;;;10.90;7.83;;;;;;;;;;4974122;28;20207;-76
2023/03/05 11:31:06;;;;;;;9.13;6.70;;;;;;;;;;4966026;28;20312;-78
2023/03/05 11:33:34;;;;;;;8.90;6.03;;;;;;;;;;4975184;28;20224;-77
2023/03/05 11:36:10;;;;;;;9.53;6.20;;;;;;;;;;4971491;28;20579;-78
2023/03/05 11:38:56;;;;;;;9.13;6.73;;;;;;;;;;4971310;28;20239;-76
2023/03/05 11:41:35;;;;;;;8.20;5.77;;;;;;;;;;4975337;28;20311;-78
2023/03/05 11:44:04;;;;;;;11.10;8.13;;;;;;;;;;4977271;28;20217;-77
2023/03/05 11:46:36;;;;;;;8.93;6.23;;;;;;;;;;4979722;28;20339;-79
2023/03/05 11:49:05;;;;;;;9.13;6.53;;;;;;;;;;4975342;28;20253;-76
2023/03/05 11:51:40;;;;;;;11.80;7.20;;;;;;;;;;4977762;28;20224;-77
2023/03/05 11:54:11;;;;;;;13.50;9.60;;;;;;;;;;4980980;28;20667;-78
2023/03/05 11:56:38;;;;;;;12.60;8.47;;;;;;;;;;4973190;28;20295;-79
2023/03/05 11:59:23;;;;;;;15.57;10.03;;;;;;;;;;4976420;28;20232;-77
2023/03/05 12:01:51;;;;;;;18.43;10.53;;;;;;;;;;4975241;28;20220;-78
2023/03/05 12:04:19;;;;;;;20.10;11.60;;;;;;;;;;4980177;28;20222;-76
2023/03/05 12:06:48;;;;;;;16.03;9.93;;;;;;;;;;4979017;28;20208;-80
2023/03/05 12:09:15;;;;;;;14.80;10.43;;;;;;;;;;4988943;28;20782;-79
2023/03/05 12:11:43;;;;;;;13.30;8.97;;;;;;;;;;4974002;28;20232;-78
2023/03/05 12:14:18;;;;;;;21.00;10.33;;;;;;;;;;4975233;28;20229;-78
2023/03/05 12:17:08;;;;;;;15.10;9.67;;;;;;;;;;4968972;28;20222;-76
2023/03/05 12:20:05;;;;;;;14.20;9.67;;;;;;;;;;4965443;28;20244;-76
2023/03/05 12:22:40;;;;;;;16.10;9.53;;;;;;;;;;4947644;28;20225;-76
2023/03/05 12:25:26;;;;;;;12.43;9.00;;;;;;;;;;4981280;28;20206;-78
2023/03/05 12:27:54;;;;;;;19.10;10.30;;;;;;;;;;4964774;28;20209;-79
2023/03/05 12:30:33;;;;;;;15.73;10.73;;;;;;;;;;4975836;28;20307;-77
2023/03/05 12:33:06;;;;;;;11.73;8.10;;;;;;;;;;4987331;28;20276;-77
2023/03/05 12:35:35;;;;;;;11.17;8.17;;;;;;;;;;4968206;28;20746;-78
2023/03/05 12:38:05;;;;;;;8.93;5.47;;;;;;;;;;4971232;28;20201;-76
2023/03/05 12:40:50;;;;;;;7.00;5.40;;;;;;;;;;4970190;28;20288;-79
2023/03/05 12:43:27;;;;;;;10.00;7.10;;;;;;;;;;4982939;28;20208;-79
2023/03/05 12:46:15;;;;;;;8.07;5.50;;;;;;;;;;4968390;28;20283;-78
2023/03/05 12:48:43;;;;;;;7.20;5.53;;;;;;;;;;4973697;28;20251;-77
2023/03/05 12:51:12;;;;;;;6.80;5.33;;;;;;;;;;4967559;28;20234;-77
2023/03/05 12:53:39;;;;;;;9.00;5.57;;;;;;;;;;4964705;28;20956;-79
2023/03/05 12:56:16;;;;;;;6.70;5.37;;;;;;;;;;4974937;28;20210;-79
2023/03/05 12:58:44;;;;;;;7.37;5.43;;;;;;;;;;4969923;28;20208;-78
2023/03/05 13:01:11;;;;;;;6.70;5.07;;;;;;;;;;4970913;28;20732;-78
2023/03/05 13:03:48;;;;;;;8.67;5.80;;;;;;;;;;4970937;28;20215;-77
2023/03/05 13:06:35;;;;;;;7.27;5.57;;;;;;;;;;4962184;28;20232;-76
2023/03/05 13:09:04;;;;;;;7.77;5.60;;;;;;;;;;4968256;28;20247;-79
2023/03/05 13:11:33;;;;;;;8.07;5.87;;;;;;;;;;4971588;28;20224;-76
2023/03/05 13:14:01;;;;;;;7.13;5.40;;;;;;;;;;4965511;28;20224;-76
2023/03/05 13:16:38;;;;;;;6.00;5.10;;;;;;;;;;4969919;28;20213;-80
2023/03/05 13:19:14;;;;;;;7.17;5.87;;;;;;;;;;4970253;28;20242;-76
2023/03/05 13:21:41;;;;;;;6.93;5.50;;;;;;;;;;4963456;28;20246;-77
2023/03/05 13:24:15;;;;;;;6.93;5.40;;;;;;;;;;4956129;28;20220;-78
2023/03/05 13:26:43;;;;;;;9.20;6.13;;;;;;;;;;4965367;28;20205;-78
2023/03/05 13:29:12;;;;;;;8.73;6.07;;;;;;;;;;4970251;28;20205;-78
2023/03/05 13:31:45;;;;;;;10.63;6.40;;;;;;;;;;4971320;28;20260;-78
2023/03/05 13:34:17;;;;;;;8.97;6.03;;;;;;;;;;4965099;28;20224;-75
2023/03/05 13:36:46;;;;;;;9.37;6.53;;;;;;;;;;4967007;28;20208;-78
2023/03/05 13:39:27;;;;;;;10.67;6.07;;;;;;;;;;4960104;28;20224;-77
2023/03/05 13:41:56;;;;;;;12.10;7.73;;;;;;;;;;4970935;28;20227;-75
2023/03/05 13:44:24;;;;;;;55.33;26.63;;;;;;;;;;4965378;28;20219;-78
2023/03/05 13:46:51;;;;;;;11.27;7.50;;;;;;;;;;4960446;28;20209;-77
2023/03/05 13:49:22;;;;;;;11.03;7.17;;;;;;;;;;4962181;28;20215;-79
2023/03/05 13:51:51;;;;;;;9.37;6.80;;;;;;;;;;4966936;28;20309;-78
2023/03/05 13:54:19;;;;;;;10.07;7.03;;;;;;;;;;4961949;28;20225;-78
2023/03/05 13:57:09;;;;;;;9.77;7.37;;;;;;;;;;4965440;28;20218;-78
2023/03/05 13:59:41;;;;;;;12.27;7.60;;;;;;;;;;4958020;28;20287;-78
2023/03/05 14:02:19;;;;;;;10.03;7.17;;;;;;;;;;4965564;28;20231;-80
2023/03/05 14:04:47;;;;;;;12.83;7.47;;;;;;;;;;4965328;28;20208;-78
2023/03/05 14:07:20;;;;;;;10.30;7.30;;;;;;;;;;4956781;28;20292;-79
2023/03/05 14:09:48;;;;;;;13.00;7.03;;;;;;;;;;4947991;28;20204;-78
2023/03/05 14:12:35;;;;;;;12.90;7.70;;;;;;;;;;4951579;28;20302;-78
2023/03/05 14:15:23;;;;;;;13.77;8.00;;;;;;;;;;4940408;28;20228;-77
2023/03/05 14:17:50;;;;;;;14.40;8.10;;;;;;;;;;4957405;28;20262;-79
2023/03/05 14:20:24;;;;;;;13.07;7.63;;;;;;;;;;4963353;28;20240;-80
2023/03/05 14:22:53;;;;;;;12.43;8.43;;;;;;;;;;4959342;28;20205;-77
2023/03/05 14:25:39;;;;;;;17.87;12.23;;;;;;;;;;4955062;28;20904;-78
2023/03/05 14:28:07;;;;;;;12.77;8.30;;;;;;;;;;4955822;28;21647;-77
2023/03/05 14:30:34;;;;;;;13.63;8.67;;;;;;;;;;4961141;28;20204;-78
2023/03/05 14:33:03;;;;;;;14.20;8.70;;;;;;;;;;4950988;28;20344;-78
2023/03/05 14:35:30;;;;;;;14.23;8.67;;;;;;;;;;4959561;28;20231;-78
2023/03/05 14:37:59;;;;;;;12.20;8.13;;;;;;;;;;4968443;28;20204;-79